Time;durP1;ratioP1;P1;durP2;ratioP2;P2;SDS_P1;SDS_P2;PMS_P1;PMS_P2;Temp;Humidity;BMP_temperature;BMP_pressure;BME280_temperature;BME280_humidity;BME280_pressure;Samples;Min_cycle;Max_cycle;Signal;HPM_P1;HPM_P2
2023/12/19 00:01:42;;;;;;;;;;;;;;;;;;5121440;28;19995;-52
2023/12/19 00:04:08;;;;;;;;;;;;;;;;;;5123414;28;19922;-53
2023/12/19 00:06:33;;;;;;;;;;;;;;;;;;5113755;28;19917;-53
2023/12/19 00:08:59;;;;;;;;;;;;;;;;;;5113185;28;19913;-53
2023/12/19 00:11:24;;;;;;;;;;;;;;;;;;5116499;28;19912;-56
2023/12/19 00:13:49;;;;;;;;;;;;;;;;;;5108957;28;19916;-54
2023/12/19 00:16:15;;;;;;;;;;;;;;;;;;5122824;28;19920;-55
2023/12/19 00:18:40;;;;;;;;;;;;;;;;;;5126327;28;19938;-50
2023/12/19 00:21:05;;;;;;;;;;;;;;;;;;5118429;28;19919;-52
2023/12/19 00:23:30;;;;;;;;;;;;;;;;;;5107960;28;19939;-55
2023/12/19 00:25:56;;;;;;;;;;;;;;;;;;5116496;28;19922;-54
2023/12/19 00:28:21;;;;;;;;;;;;;;;;;;5122814;28;19983;-57
2023/12/19 00:30:47;;;;;;;;;;;;;;;;;;5118500;28;19919;-54
2023/12/19 00:33:12;;;;;;;;;;;;;;;;;;5124026;28;19912;-55
2023/12/19 00:35:38;;;;;;;;;;;;;;;;;;5117720;28;19916;-54
2023/12/19 00:38:04;;;;;;;;;;;;;;;;;;5115282;28;19946;-55
2023/12/19 00:40:30;;;;;;;;;;;;;;;;;;5102237;28;19921;-55
2023/12/19 00:42:55;;;;;;;;;;;;;;;;;;5110916;28;19912;-53
2023/12/19 00:45:21;;;;;;;;;;;;;;;;;;5113241;28;19940;-56
2023/12/19 00:47:46;;;;;;;;;;;;;;;;;;5119008;28;19927;-51
2023/12/19 00:50:15;;;;;;;;;;;;;;;;;;5118818;28;19975;-55
2023/12/19 00:52:40;;;;;;;;;;;;;;;;;;5126978;28;19911;-53
2023/12/19 00:55:06;;;;;;;;;;;;;;;;;;5110119;28;19920;-52
2023/12/19 00:57:31;;;;;;;;;;;;;;;;;;5109449;28;19934;-52
2023/12/19 00:59:57;;;;;;;;;;;;;;;;;;5109345;27;19916;-56
2023/12/19 01:02:23;;;;;;;;;;;;;;;;;;5121143;28;19919;-52
2023/12/19 01:04:48;;;;;;;;;;;;;;;;;;5117027;28;19923;-55
2023/12/19 01:07:14;;;;;;;;;;;;;;;;;;5116648;28;19915;-55
2023/12/19 01:09:39;;;;;;;;;;;;;;;;;;5107561;28;19947;-55
2023/12/19 01:12:04;;;;;;;;;;;;;;;;;;5117093;28;19916;-53
2023/12/19 01:14:30;;;;;;;;;;;;;;;;;;5119584;28;19935;-55
2023/12/19 01:16:55;;;;;;;;;;;;;;;;;;5112229;28;19943;-55
2023/12/19 01:19:21;;;;;;;;;;;;;;;;;;5125727;28;19923;-54
2023/12/19 01:21:46;;;;;;;;;;;;;;;;;;5120165;28;19912;-55
2023/12/19 01:24:12;;;;;;;;;;;;;;;;;;5110897;28;19912;-54
2023/12/19 01:26:37;;;;;;;;;;;;;;;;;;5116513;28;19912;-55
2023/12/19 01:29:03;;;;;;;;;;;;;;;;;;5112681;28;19912;-54
2023/12/19 01:31:28;;;;;;;;;;;;;;;;;;5116124;28;19923;-57
2023/12/19 01:33:54;;;;;;;;;;;;;;;;;;5117369;28;19971;-54
2023/12/19 01:36:19;;;;;;;;;;;;;;;;;;5112035;28;19927;-56
2023/12/19 01:38:44;;;;;;;;;;;;;;;;;;5113294;28;19943;-54
2023/12/19 01:41:10;;;;;;;;;;;;;;;;;;5113924;28;19993;-55
2023/12/19 01:43:35;;;;;;;;;;;;;;;;;;5114813;28;19912;-54
2023/12/19 01:46:01;;;;;;;;;;;;;;;;;;5106028;28;19908;-55
2023/12/19 01:48:26;;;;;;;;;;;;;;;;;;5127276;28;19920;-52
2023/12/19 01:50:52;;;;;;;;;;;;;;;;;;5107002;28;19912;-54
2023/12/19 01:53:17;;;;;;;;;;;;;;;;;;5118834;28;19948;-54
2023/12/19 01:55:43;;;;;;;;;;;;;;;;;;5107357;28;19912;-54
2023/12/19 01:58:08;;;;;;;;;;;;;;;;;;5117888;28;19959;-54
2023/12/19 02:00:34;;;;;;;;;;;;;;;;;;5116379;28;19920;-55
2023/12/19 02:03:00;;;;;;;;;;;;;;;;;;5116876;28;19927;-54
2023/12/19 02:05:25;;;;;;;;;;;;;;;;;;5117181;28;19912;-54
2023/12/19 02:07:51;;;;;;;;;;;;;;;;;;5116759;28;19912;-54
2023/12/19 02:10:16;;;;;;;;;;;;;;;;;;5122747;28;20027;-55
2023/12/19 02:12:41;;;;;;;;;;;;;;;;;;5105139;28;19912;-55
2023/12/19 02:15:07;;;;;;;;;;;;;;;;;;5109956;28;19934;-53
2023/12/19 02:17:32;;;;;;;;;;;;;;;;;;5116594;28;19958;-54
2023/12/19 02:19:59;;;;;;;;;;;;;;;;;;5119282;28;19916;-55
2023/12/19 02:22:24;;;;;;;;;;;;;;;;;;5102282;28;19948;-53
2023/12/19 02:24:49;;;;;;;;;;;;;;;;;;5125926;28;19920;-56
2023/12/19 02:27:15;;;;;;;;;;;;;;;;;;5105999;28;19958;-52
2023/12/19 02:29:40;;;;;;;;;;;;;;;;;;5117169;28;19912;-53
2023/12/19 02:32:06;;;;;;;;;;;;;;;;;;5115697;28;19916;-54
2023/12/19 02:34:32;;;;;;;;;;;;;;;;;;5109188;28;19923;-51
2023/12/19 02:36:57;;;;;;;;;;;;;;;;;;5115937;28;19912;-52
2023/12/19 02:39:23;;;;;;;;;;;;;;;;;;5117336;28;19979;-54
2023/12/19 02:41:48;;;;;;;;;;;;;;;;;;5117331;28;19923;-56
2023/12/19 02:44:13;;;;;;;;;;;;;;;;;;5124877;28;19940;-52
2023/12/19 02:46:38;;;;;;;;;;;;;;;;;;5111002;28;20224;-53
2023/12/19 02:49:03;;;;;;;;;;;;;;;;;;5115389;28;19919;-54
2023/12/19 02:51:32;;;;;;;;;;;;;;;;;;5118771;28;19919;-54
2023/12/19 02:53:57;;;;;;;;;;;;;;;;;;5109263;28;19984;-54
2023/12/19 02:56:23;;;;;;;;;;;;;;;;;;5109739;28;19911;-53
2023/12/19 02:58:48;;;;;;;;;;;;;;;;;;5114206;28;19939;-52
2023/12/19 03:01:14;;;;;;;;;;;;;;;;;;5118236;28;19988;-57
2023/12/19 03:03:39;;;;;;;;;;;;;;;;;;5106850;28;19916;-50
2023/12/19 03:06:05;;;;;;;;;;;;;;;;;;5111769;28;19988;-54
2023/12/19 03:08:30;;;;;;;;;;;;;;;;;;5104520;28;19916;-50
2023/12/19 03:10:56;;;;;;;;;;;;;;;;;;5115448;28;19911;-52
2023/12/19 03:13:21;;;;;;;;;;;;;;;;;;5110216;28;19916;-52
2023/12/19 03:15:47;;;;;;;;;;;;;;;;;;5112199;28;19923;-55
2023/12/19 03:18:12;;;;;;;;;;;;;;;;;;5108272;28;19912;-50
2023/12/19 03:20:37;;;;;;;;;;;;;;;;;;5110922;28;19924;-54
2023/12/19 03:23:03;;;;;;;;;;;;;;;;;;5109949;28;19931;-52
2023/12/19 03:25:28;;;;;;;;;;;;;;;;;;5120539;28;19987;-51
2023/12/19 03:27:54;;;;;;;;;;;;;;;;;;5102185;28;19917;-54
2023/12/19 03:30:19;;;;;;;;;;;;;;;;;;5116528;28;19916;-55
2023/12/19 03:32:45;;;;;;;;;;;;;;;;;;5108678;28;19934;-55
2023/12/19 03:35:10;;;;;;;;;;;;;;;;;;5110455;28;19919;-55
2023/12/19 03:37:36;;;;;;;;;;;;;;;;;;5120874;28;19943;-54
2023/12/19 03:40:01;;;;;;;;;;;;;;;;;;5119522;28;19922;-56
2023/12/19 03:42:27;;;;;;;;;;;;;;;;;;5125110;28;19912;-54
2023/12/19 03:44:52;;;;;;;;;;;;;;;;;;5124610;28;19928;-54
2023/12/19 03:47:18;;;;;;;;;;;;;;;;;;5123748;28;19922;-51
2023/12/19 03:49:43;;;;;;;;;;;;;;;;;;5112598;28;19919;-55
2023/12/19 03:52:09;;;;;;;;;;;;;;;;;;5114418;28;19924;-52
2023/12/19 03:54:34;;;;;;;;;;;;;;;;;;5108365;28;19913;-55
2023/12/19 03:57:00;;;;;;;;;;;;;;;;;;5118472;28;19926;-52
2023/12/19 03:59:25;;;;;;;;;;;;;;;;;;5128835;28;19923;-56
2023/12/19 04:01:51;;;;;;;;;;;;;;;;;;5116989;28;19919;-55
2023/12/19 04:04:17;;;;;;;;;;;;;;;;;;5128041;28;19995;-51
2023/12/19 04:06:43;;;;;;;;;;;;;;;;;;5113632;28;19924;-53
2023/12/19 04:09:09;;;;;;;;;;;;;;;;;;5124037;28;19948;-52
2023/12/19 04:11:34;;;;;;;;;;;;;;;;;;5119151;28;19919;-52
2023/12/19 04:14:00;;;;;;;;;;;;;;;;;;5130091;28;19928;-55
2023/12/19 04:16:25;;;;;;;;;;;;;;;;;;5123594;28;19913;-53
2023/12/19 04:18:51;;;;;;;;;;;;;;;;;;5119748;28;19912;-50
2023/12/19 04:21:16;;;;;;;;;;;;;;;;;;5111068;28;19979;-55
2023/12/19 04:23:41;;;;;;;;;;;;;;;;;;5125369;28;19923;-53
2023/12/19 04:26:07;;;;;;;;;;;;;;;;;;5119625;28;19972;-55
2023/12/19 04:28:32;;;;;;;;;;;;;;;;;;5115161;28;19970;-55
2023/12/19 04:30:58;;;;;;;;;;;;;;;;;;5120029;28;19912;-56
2023/12/19 04:33:23;;;;;;;;;;;;;;;;;;5112160;28;19912;-54
2023/12/19 04:35:49;;;;;;;;;;;;;;;;;;5123438;28;19916;-53
2023/12/19 04:38:14;;;;;;;;;;;;;;;;;;5116921;28;19912;-54
2023/12/19 04:40:39;;;;;;;;;;;;;;;;;;5130739;28;19999;-53
2023/12/19 04:43:05;;;;;;;;;;;;;;;;;;5130797;28;19936;-53
2023/12/19 04:45:31;;;;;;;;;;;;;;;;;;5122262;28;19939;-52
2023/12/19 04:47:56;;;;;;;;;;;;;;;;;;5121239;28;19912;-54
2023/12/19 04:50:22;;;;;;;;;;;;;;;;;;5122987;28;19912;-55
2023/12/19 04:52:48;;;;;;;;;;;;;;;;;;5121453;28;19934;-54
2023/12/19 04:55:13;;;;;;;;;;;;;;;;;;5117599;28;19919;-55
2023/12/19 04:57:39;;;;;;;;;;;;;;;;;;5120673;28;19916;-54
2023/12/19 05:00:04;;;;;;;;;;;;;;;;;;5114233;28;19916;-55
2023/12/19 05:02:30;;;;;;;;;;;;;;;;;;5103090;28;19912;-54
2023/12/19 05:04:56;;;;;;;;;;;;;;;;;;5125305;28;19927;-53
2023/12/19 05:07:21;;;;;;;;;;;;;;;;;;5109312;28;19948;-54
2023/12/19 05:09:47;;;;;;;;;;;;;;;;;;5110436;28;19913;-53
2023/12/19 05:12:12;;;;;;;;;;;;;;;;;;5117414;28;19912;-54
2023/12/19 05:14:37;;;;;;;;;;;;;;;;;;5123169;28;19912;-55
2023/12/19 05:17:03;;;;;;;;;;;;;;;;;;5120721;28;19916;-54
2023/12/19 05:19:28;;;;;;;;;;;;;;;;;;5117576;28;19919;-55
2023/12/19 05:21:54;;;;;;;;;;;;;;;;;;5123023;28;19977;-54
2023/12/19 05:24:19;;;;;;;;;;;;;;;;;;5130376;28;19916;-54
2023/12/19 05:26:44;;;;;;;;;;;;;;;;;;5118248;28;19938;-55
2023/12/19 05:29:10;;;;;;;;;;;;;;;;;;5125589;28;19934;-52
2023/12/19 05:31:35;;;;;;;;;;;;;;;;;;5117688;28;19912;-55
2023/12/19 05:34:01;;;;;;;;;;;;;;;;;;5121397;28;19919;-53
2023/12/19 05:36:26;;;;;;;;;;;;;;;;;;5111062;28;19934;-53
2023/12/19 05:38:51;;;;;;;;;;;;;;;;;;5132032;28;19912;-54
2023/12/19 05:41:16;;;;;;;;;;;;;;;;;;5120930;28;19920;-53
2023/12/19 05:43:42;;;;;;;;;;;;;;;;;;5121243;28;19954;-54
2023/12/19 05:46:07;;;;;;;;;;;;;;;;;;5112115;28;19912;-55
2023/12/19 05:48:33;;;;;;;;;;;;;;;;;;5125015;28;19927;-54
2023/12/19 05:50:59;;;;;;;;;;;;;;;;;;5115652;28;19994;-53
2023/12/19 05:53:25;;;;;;;;;;;;;;;;;;5112172;28;19916;-51
2023/12/19 05:55:51;;;;;;;;;;;;;;;;;;5123847;28;20016;-54
2023/12/19 05:58:16;;;;;;;;;;;;;;;;;;5117235;28;19912;-54
2023/12/19 06:00:44;;;;;;;;;;;;;;;;;;5115003;28;19920;-54
2023/12/19 06:03:10;;;;;;;;;;;;;;;;;;5116487;28;19951;-54
2023/12/19 06:05:38;;;;;;;;;;;;;;;;;;5117118;28;19918;-53
2023/12/19 06:08:03;;;;;;;;;;;;;;;;;;5120997;28;19915;-52
2023/12/19 06:10:28;;;;;;;;;;;;;;;;;;5117572;28;19920;-55
2023/12/19 06:12:53;;;;;;;;;;;;;;;;;;5115347;28;19916;-54
2023/12/19 06:15:19;;;;;;;;;;;;;;;;;;5127019;28;19912;-54
2023/12/19 06:17:46;;;;;;;;;;;;;;;;;;5115326;28;19938;-52
2023/12/19 06:20:11;;;;;;;;;;;;;;;;;;5119185;28;19923;-56
2023/12/19 06:22:37;;;;;;;;;;;;;;;;;;5117844;28;19951;-51
2023/12/19 06:25:03;;;;;;;;;;;;;;;;;;5125253;28;19918;-53
2023/12/19 06:27:28;;;;;;;;;;;;;;;;;;5111675;28;19922;-53
2023/12/19 06:29:53;;;;;;;;;;;;;;;;;;5117861;28;19912;-53
2023/12/19 06:32:18;;;;;;;;;;;;;;;;;;5119877;28;19915;-54
2023/12/19 06:34:43;;;;;;;;;;;;;;;;;;5112463;28;19942;-52
2023/12/19 06:37:09;;;;;;;;;;;;;;;;;;5115243;28;19926;-53
2023/12/19 06:39:36;;;;;;;;;;;;;;;;;;5115082;28;19916;-54
2023/12/19 06:42:01;;;;;;;;;;;;;;;;;;5115592;28;19908;-52
2023/12/19 06:44:26;;;;;;;;;;;;;;;;;;5119623;28;19966;-55
2023/12/19 06:46:52;;;;;;;;;;;;;;;;;;5129615;28;19950;-55
2023/12/19 06:49:18;;;;;;;;;;;;;;;;;;5133975;28;19912;-55
2023/12/19 06:51:43;;;;;;;;;;;;;;;;;;5116606;28;19934;-53
2023/12/19 06:54:08;;;;;;;;;;;;;;;;;;5115449;28;19923;-52
2023/12/19 06:56:33;;;;;;;;;;;;;;;;;;5117592;28;19937;-52
2023/12/19 06:59:00;;;;;;;;;;;;;;;;;;5122482;28;19954;-53
2023/12/19 07:01:26;;;;;;;;;;;;;;;;;;5114908;28;19923;-55
2023/12/19 07:03:51;;;;;;;;;;;;;;;;;;5115064;28;19916;-54
2023/12/19 07:06:17;;;;;;;;;;;;;;;;;;5117648;28;19933;-53
2023/12/19 07:08:42;;;;;;;;;;;;;;;;;;5118294;28;19933;-54
2023/12/19 07:11:08;;;;;;;;;;;;;;;;;;5122418;28;19927;-53
2023/12/19 07:13:33;;;;;;;;;;;;;;;;;;5118128;28;19920;-51
2023/12/19 07:15:59;;;;;;;;;;;;;;;;;;5131021;28;19919;-55
2023/12/19 07:18:24;;;;;;;;;;;;;;;;;;5126951;28;19943;-52
2023/12/19 07:20:50;;;;;;;;;;;;;;;;;;5138718;28;19923;-57
2023/12/19 07:23:15;;;;;;;;;;;;;;;;;;5130349;28;19912;-52
2023/12/19 07:25:41;;;;;;;;;;;;;;;;;;5128414;28;19911;-52
2023/12/19 07:28:06;;;;;;;;;;;;;;;;;;5119165;28;19912;-55
2023/12/19 07:30:32;;;;;;;;;;;;;;;;;;5122154;28;19912;-54
2023/12/19 07:32:59;;;;;;;;;;;;;;;;;;5130360;28;19912;-55
2023/12/19 07:35:25;;;;;;;;;;;;;;;;;;5131660;28;19911;-51
2023/12/19 07:37:51;;;;;;;;;;;;;;;;;;5126926;28;20002;-53
2023/12/19 07:40:16;;;;;;;;;;;;;;;;;;5134779;28;19916;-55
2023/12/19 07:42:43;;;;;;;;;;;;;;;;;;5127185;28;19912;-54
2023/12/19 07:45:08;;;;;;;;;;;;;;;;;;5128074;28;19943;-51
2023/12/19 07:47:33;;;;;;;;;;;;;;;;;;5118222;28;19934;-57
2023/12/19 07:49:59;;;;;;;;;;;;;;;;;;5135231;28;19944;-51
2023/12/19 07:52:25;;;;;;;;;;;;;;;;;;5137773;28;19916;-55
2023/12/19 07:54:50;;;;;;;;;;;;;;;;;;5137203;28;19939;-57
2023/12/19 07:57:16;;;;;;;;;;;;;;;;;;5137798;28;19933;-56
2023/12/19 07:59:41;;;;;;;;;;;;;;;;;;5137318;27;19941;-52
2023/12/19 08:02:07;;;;;;;;;;;;;;;;;;5138433;28;19919;-55
2023/12/19 08:04:32;;;;;;;;;;;;;;;;;;5137183;28;19912;-58
2023/12/19 08:06:58;;;;;;;;;;;;;;;;;;5137869;28;19947;-56
2023/12/19 08:09:23;;;;;;;;;;;;;;;;;;5136954;28;19911;-55
2023/12/19 08:11:49;;;;;;;;;;;;;;;;;;5137499;27;19922;-53
2023/12/19 08:14:14;;;;;;;;;;;;;;;;;;5123217;28;19942;-55
2023/12/19 08:16:39;;;;;;;;;;;;;;;;;;5137129;27;19912;-54
2023/12/19 08:19:04;;;;;;;;;;;;;;;;;;5135460;28;19912;-55
2023/12/19 08:21:32;;;;;;;;;;;;;;;;;;5135831;28;19915;-54
2023/12/19 08:23:57;;;;;;;;;;;;;;;;;;5135147;28;19919;-53
2023/12/19 08:26:22;;;;;;;;;;;;;;;;;;5126414;28;19912;-56
2023/12/19 08:28:48;;;;;;;;;;;;;;;;;;5131810;28;20033;-55
2023/12/19 08:31:13;;;;;;;;;;;;;;;;;;5135843;28;19912;-55
2023/12/19 08:33:41;;;;;;;;;;;;;;;;;;5134466;28;19990;-53
2023/12/19 08:36:07;;;;;;;;;;;;;;;;;;5136452;28;20022;-52
2023/12/19 08:38:32;;;;;;;;;;;;;;;;;;5135345;28;19932;-56
2023/12/19 08:40:58;;;;;;;;;;;;;;;;;;5135638;28;19935;-54
2023/12/19 08:43:23;;;;;;;;;;;;;;;;;;5134993;28;19944;-55
2023/12/19 08:45:49;;;;;;;;;;;;;;;;;;5136553;28;19930;-55
2023/12/19 08:48:14;;;;;;;;;;;;;;;;;;5118868;28;19933;-55
2023/12/19 08:50:39;;;;;;;;;;;;;;;;;;5119111;28;19997;-52
2023/12/19 08:53:05;;;;;;;;;;;;;;;;;;5116993;28;19959;-55
2023/12/19 08:55:31;;;;;;;;;;;;;;;;;;5123451;28;19912;-56
2023/12/19 08:57:57;;;;;;;;;;;;;;;;;;5123407;28;19911;-54
2023/12/19 09:00:22;;;;;;;;;;;;;;;;;;5136645;28;19923;-50
2023/12/19 09:02:48;;;;;;;;;;;;;;;;;;5120777;28;19912;-52
2023/12/19 09:05:13;;;;;;;;;;;;;;;;;;5126866;28;19943;-55
2023/12/19 09:07:39;;;;;;;;;;;;;;;;;;5120489;28;19919;-52
2023/12/19 09:10:05;;;;;;;;;;;;;;;;;;5123822;28;19912;-55
2023/12/19 09:12:31;;;;;;;;;;;;;;;;;;5120280;28;19916;-52
2023/12/19 09:14:56;;;;;;;;;;;;;;;;;;5117900;28;19942;-52
2023/12/19 09:17:21;;;;;;;;;;;;;;;;;;5120511;28;19912;-55
2023/12/19 09:19:46;;;;;;;;;;;;;;;;;;5119124;28;19916;-52
2023/12/19 09:22:12;;;;;;;;;;;;;;;;;;5119903;28;19912;-51
2023/12/19 09:24:37;;;;;;;;;;;;;;;;;;5126394;28;19912;-54
2023/12/19 09:27:03;;;;;;;;;;;;;;;;;;5135993;28;20008;-49
2023/12/19 09:29:29;;;;;;;;;;;;;;;;;;5126968;28;19938;-56
2023/12/19 09:31:54;;;;;;;;;;;;;;;;;;5119598;28;19920;-53
2023/12/19 09:34:20;;;;;;;;;;;;;;;;;;5116510;28;19912;-54
2023/12/19 09:36:45;;;;;;;;;;;;;;;;;;5129248;28;19919;-54
2023/12/19 09:39:14;;;;;;;;;;;;;;;;;;5116628;28;19942;-55
2023/12/19 09:41:39;;;;;;;;;;;;;;;;;;5116796;28;19915;-52
2023/12/19 09:44:04;;;;;;;;;;;;;;;;;;5124039;28;19908;-54
2023/12/19 09:46:33;;;;;;;;;;;;;;;;;;5125051;28;19948;-56
2023/12/19 09:48:58;;;;;;;;;;;;;;;;;;5115948;28;19916;-53
2023/12/19 09:51:24;;;;;;;;;;;;;;;;;;5126807;28;19931;-55
2023/12/19 09:53:50;;;;;;;;;;;;;;;;;;5116087;28;19979;-54
2023/12/19 09:56:15;;;;;;;;;;;;;;;;;;5123359;28;19920;-54
2023/12/19 09:58:41;;;;;;;;;;;;;;;;;;5115979;28;19912;-53
2023/12/19 10:01:07;;;;;;;;;;;;;;;;;;5124633;28;19924;-52
2023/12/19 10:03:33;;;;;;;;;;;;;;;;;;5115876;28;19927;-51
2023/12/19 10:05:59;;;;;;;;;;;;;;;;;;5119932;28;19919;-53
2023/12/19 10:08:24;;;;;;;;;;;;;;;;;;5115791;28;19984;-54
2023/12/19 10:10:50;;;;;;;;;;;;;;;;;;5120010;28;19932;-57
2023/12/19 10:13:16;;;;;;;;;;;;;;;;;;5115735;28;19979;-51
2023/12/19 10:15:41;;;;;;;;;;;;;;;;;;5117061;28;19937;-55
2023/12/19 10:18:10;;;;;;;;;;;;;;;;;;5115779;28;19912;-55
2023/12/19 10:20:37;;;;;;;;;;;;;;;;;;5116700;28;19943;-55
2023/12/19 10:23:03;;;;;;;;;;;;;;;;;;5115675;28;19912;-55
2023/12/19 10:25:28;;;;;;;;;;;;;;;;;;5117601;28;19927;-56
2023/12/19 10:27:54;;;;;;;;;;;;;;;;;;5125674;28;19919;-54
2023/12/19 10:30:20;;;;;;;;;;;;;;;;;;5116481;28;19961;-55
2023/12/19 10:32:46;;;;;;;;;;;;;;;;;;5125523;28;19916;-53
2023/12/19 10:35:12;;;;;;;;;;;;;;;;;;5131293;28;19933;-55
2023/12/19 10:37:37;;;;;;;;;;;;;;;;;;5135365;28;19919;-55
2023/12/19 10:40:03;;;;;;;;;;;;;;;;;;5133710;28;19916;-53
2023/12/19 10:42:28;;;;;;;;;;;;;;;;;;5134525;28;19916;-56
2023/12/19 10:44:58;;;;;;;;;;;;;;;;;;5125747;28;19980;-55
2023/12/19 10:47:24;;;;;;;;;;;;;;;;;;5131423;28;19912;-55
2023/12/19 10:49:49;;;;;;;;;;;;;;;;;;5137917;28;19931;-55
2023/12/19 10:52:15;;;;;;;;;;;;;;;;;;5142173;27;19950;-55
2023/12/19 10:54:40;;;;;;;;;;;;;;;;;;5141644;27;19920;-54
2023/12/19 10:57:06;;;;;;;;;;;;;;;;;;5141504;27;19912;-54
2023/12/19 10:59:32;;;;;;;;;;;;;;;;;;5141340;28;19911;-55
2023/12/19 11:01:57;;;;;;;;;;;;;;;;;;5141418;28;19967;-52
2023/12/19 11:04:23;;;;;;;;;;;;;;;;;;5140989;28;19927;-54
2023/12/19 11:06:48;;;;;;;;;;;;;;;;;;5141720;27;19915;-53
2023/12/19 11:09:14;;;;;;;;;;;;;;;;;;5140520;28;19920;-53
2023/12/19 11:11:39;;;;;;;;;;;;;;;;;;5141735;27;19923;-55
2023/12/19 11:14:07;;;;;;;;;;;;;;;;;;5140984;27;19916;-55
2023/12/19 11:16:33;;;;;;;;;;;;;;;;;;5141170;28;19916;-52
2023/12/19 11:19:00;;;;;;;;;;;;;;;;;;5124856;28;19920;-52
2023/12/19 11:21:25;;;;;;;;;;;;;;;;;;5130459;28;19944;-55
2023/12/19 11:23:51;;;;;;;;;;;;;;;;;;5126201;28;19935;-52
2023/12/19 11:26:16;;;;;;;;;;;;;;;;;;5127325;28;19912;-54
2023/12/19 11:28:42;;;;;;;;;;;;;;;;;;5125846;28;19923;-52
2023/12/19 11:31:08;;;;;;;;;;;;;;;;;;5127331;28;19911;-53
2023/12/19 11:33:37;;;;;;;;;;;;;;;;;;5125534;28;19927;-56
2023/12/19 11:36:02;;;;;;;;;;;;;;;;;;5124067;28;19918;-56
2023/12/19 11:38:29;;;;;;;;;;;;;;;;;;5125040;28;19943;-53
2023/12/19 11:40:55;;;;;;;;;;;;;;;;;;5124595;28;19916;-54
2023/12/19 11:43:21;;;;;;;;;;;;;;;;;;5138066;28;19912;-56
2023/12/19 11:45:47;;;;;;;;;;;;;;;;;;5121346;28;19923;-54
2023/12/19 11:48:12;;;;;;;;;;;;;;;;;;5127167;28;19920;-56
2023/12/19 11:50:38;;;;;;;;;;;;;;;;;;5141631;28;19912;-52
2023/12/19 11:53:03;;;;;;;;;;;;;;;;;;5127174;28;19947;-54
2023/12/19 11:55:30;;;;;;;;;;;;;;;;;;5139387;28;19916;-54
2023/12/19 11:57:56;;;;;;;;;;;;;;;;;;5137054;28;19912;-52
2023/12/19 12:00:21;;;;;;;;;;;;;;;;;;5137796;28;19916;-54
2023/12/19 12:02:47;;;;;;;;;;;;;;;;;;5137246;28;19955;-52
2023/12/19 12:05:13;;;;;;;;;;;;;;;;;;5137750;28;19912;-52
2023/12/19 12:07:38;;;;;;;;;;;;;;;;;;5137725;27;19942;-53
2023/12/19 12:10:06;;;;;;;;;;;;;;;;;;5137652;28;19974;-53
2023/12/19 12:12:32;;;;;;;;;;;;;;;;;;5136299;28;19926;-53
2023/12/19 12:14:57;;;;;;;;;;;;;;;;;;5136734;28;19912;-53
2023/12/19 12:17:23;;;;;;;;;;;;;;;;;;5136084;28;19934;-54
2023/12/19 12:19:48;;;;;;;;;;;;;;;;;;5136810;28;19923;-55
2023/12/19 12:22:14;;;;;;;;;;;;;;;;;;5135732;28;19934;-53
2023/12/19 12:24:39;;;;;;;;;;;;;;;;;;5136359;28;19916;-50
2023/12/19 12:27:04;;;;;;;;;;;;;;;;;;5134871;28;19912;-50
2023/12/19 12:29:29;;;;;;;;;;;;;;;;;;5135935;28;19920;-54
2023/12/19 12:31:55;;;;;;;;;;;;;;;;;;5128953;28;19935;-52
2023/12/19 12:34:21;;;;;;;;;;;;;;;;;;5136568;28;19922;-54
2023/12/19 12:36:48;;;;;;;;;;;;;;;;;;5135076;28;19933;-53
2023/12/19 12:39:14;;;;;;;;;;;;;;;;;;5136501;28;19918;-54
2023/12/19 12:41:41;;;;;;;;;;;;;;;;;;5134015;28;19916;-55
2023/12/19 12:44:07;;;;;;;;;;;;;;;;;;5136146;28;19998;-51
2023/12/19 12:46:32;;;;;;;;;;;;;;;;;;5134667;28;19915;-54
2023/12/19 12:48:58;;;;;;;;;;;;;;;;;;5128557;28;19919;-50
2023/12/19 12:51:23;;;;;;;;;;;;;;;;;;5118166;28;19944;-54
2023/12/19 12:53:49;;;;;;;;;;;;;;;;;;5117222;28;19920;-54
2023/12/19 12:56:16;;;;;;;;;;;;;;;;;;5117997;28;19968;-55
2023/12/19 12:58:42;;;;;;;;;;;;;;;;;;5128244;28;19979;-50
2023/12/19 13:01:09;;;;;;;;;;;;;;;;;;5118308;28;19927;-54
2023/12/19 13:03:34;;;;;;;;;;;;;;;;;;5128366;28;19935;-51
2023/12/19 13:06:00;;;;;;;;;;;;;;;;;;5117682;28;19924;-53
2023/12/19 13:08:25;;;;;;;;;;;;;;;;;;5126412;28;19912;-49
2023/12/19 13:10:51;;;;;;;;;;;;;;;;;;5117813;28;19912;-54
2023/12/19 13:13:17;;;;;;;;;;;;;;;;;;5126982;28;19923;-53
2023/12/19 13:15:42;;;;;;;;;;;;;;;;;;5118448;28;19930;-55
2023/12/19 13:18:08;;;;;;;;;;;;;;;;;;5124629;28;19919;-52
2023/12/19 13:20:34;;;;;;;;;;;;;;;;;;5116995;28;19931;-51
2023/12/19 13:23:00;;;;;;;;;;;;;;;;;;5124720;28;19983;-54
2023/12/19 13:25:27;;;;;;;;;;;;;;;;;;5119349;28;19912;-54
2023/12/19 13:27:54;;;;;;;;;;;;;;;;;;5121459;28;19927;-55
2023/12/19 13:30:19;;;;;;;;;;;;;;;;;;5117406;28;19959;-54
2023/12/19 13:32:45;;;;;;;;;;;;;;;;;;5129179;28;19923;-53
2023/12/19 13:35:10;;;;;;;;;;;;;;;;;;5120358;28;19975;-53
2023/12/19 13:37:35;;;;;;;;;;;;;;;;;;5117921;28;19976;-53
2023/12/19 13:40:01;;;;;;;;;;;;;;;;;;5118615;28;19916;-55
2023/12/19 13:42:26;;;;;;;;;;;;;;;;;;5117109;28;19919;-52
2023/12/19 13:44:52;;;;;;;;;;;;;;;;;;5119547;28;19912;-56
2023/12/19 13:47:17;;;;;;;;;;;;;;;;;;5125743;28;19919;-56
2023/12/19 13:49:43;;;;;;;;;;;;;;;;;;5120496;28;19973;-53
2023/12/19 13:52:08;;;;;;;;;;;;;;;;;;5123299;28;19911;-53
2023/12/19 13:54:34;;;;;;;;;;;;;;;;;;5120369;28;19912;-55
2023/12/19 13:56:59;;;;;;;;;;;;;;;;;;5121433;28;19977;-54
2023/12/19 13:59:25;;;;;;;;;;;;;;;;;;5120907;28;19923;-54
2023/12/19 14:01:51;;;;;;;;;;;;;;;;;;5118996;28;19958;-55
2023/12/19 14:04:17;;;;;;;;;;;;;;;;;;5121029;28;19919;-53
2023/12/19 14:06:42;;;;;;;;;;;;;;;;;;5118372;28;19947;-54
2023/12/19 14:09:08;;;;;;;;;;;;;;;;;;5121123;28;19919;-54
2023/12/19 14:11:33;;;;;;;;;;;;;;;;;;5116524;28;20033;-54
2023/12/19 14:13:59;;;;;;;;;;;;;;;;;;5120078;28;19920;-57
2023/12/19 14:16:26;;;;;;;;;;;;;;;;;;5123225;28;19922;-55
2023/12/19 14:18:51;;;;;;;;;;;;;;;;;;5134697;28;19922;-56
2023/12/19 14:21:17;;;;;;;;;;;;;;;;;;5127174;28;19983;-57
2023/12/19 14:23:42;;;;;;;;;;;;;;;;;;5129652;28;19912;-56
2023/12/19 14:26:08;;;;;;;;;;;;;;;;;;5135800;28;19937;-56
2023/12/19 14:28:33;;;;;;;;;;;;;;;;;;5134865;28;19968;-57
2023/12/19 14:30:59;;;;;;;;;;;;;;;;;;5135546;28;19916;-54
2023/12/19 14:33:24;;;;;;;;;;;;;;;;;;5120190;28;19913;-56
2023/12/19 14:35:50;;;;;;;;;;;;;;;;;;5115222;28;19912;-55
2023/12/19 14:38:15;;;;;;;;;;;;;;;;;;5127998;28;19991;-55
2023/12/19 14:40:40;;;;;;;;;;;;;;;;;;5106972;28;19916;-55
2023/12/19 14:43:07;;;;;;;;;;;;;;;;;;5109379;28;19908;-55
2023/12/19 14:45:32;;;;;;;;;;;;;;;;;;5115080;28;19912;-55
2023/12/19 14:47:58;;;;;;;;;;;;;;;;;;5126904;28;19932;-52
2023/12/19 14:50:23;;;;;;;;;;;;;;;;;;5135058;28;19919;-57
2023/12/19 14:52:50;;;;;;;;;;;;;;;;;;5134188;28;19915;-50
2023/12/19 14:55:15;;;;;;;;;;;;;;;;;;5134613;28;19912;-52
2023/12/19 14:57:40;;;;;;;;;;;;;;;;;;5133781;28;19943;-56
2023/12/19 15:00:10;;;;;;;;;;;;;;;;;;5109345;28;19915;-54
2023/12/19 15:02:35;;;;;;;;;;;;;;;;;;5132736;28;19912;-53
2023/12/19 15:05:01;;;;;;;;;;;;;;;;;;5134501;28;19923;-56
2023/12/19 15:07:26;;;;;;;;;;;;;;;;;;5132212;28;19912;-53
2023/12/19 15:09:52;;;;;;;;;;;;;;;;;;5127399;28;19912;-50
2023/12/19 15:12:18;;;;;;;;;;;;;;;;;;5126080;28;19947;-56
2023/12/19 15:14:44;;;;;;;;;;;;;;;;;;5122075;28;19912;-53
2023/12/19 15:17:09;;;;;;;;;;;;;;;;;;5131278;28;19947;-54
2023/12/19 15:19:35;;;;;;;;;;;;;;;;;;5133908;28;19920;-55
2023/12/19 15:22:00;;;;;;;;;;;;;;;;;;5132379;28;19926;-55
2023/12/19 15:24:26;;;;;;;;;;;;;;;;;;5134042;28;19957;-54
2023/12/19 15:26:55;;;;;;;;;;;;;;;;;;5120846;28;19987;-57
2023/12/19 15:29:20;;;;;;;;;;;;;;;;;;5133618;28;19917;-56
2023/12/19 15:31:46;;;;;;;;;;;;;;;;;;5136064;28;19934;-55
2023/12/19 15:34:11;;;;;;;;;;;;;;;;;;5126339;28;19980;-54
2023/12/19 15:36:37;;;;;;;;;;;;;;;;;;5137631;28;19919;-56
2023/12/19 15:39:03;;;;;;;;;;;;;;;;;;5130945;28;19923;-56
2023/12/19 15:41:29;;;;;;;;;;;;;;;;;;5132004;28;19912;-52
2023/12/19 15:43:55;;;;;;;;;;;;;;;;;;5137845;28;19911;-56
2023/12/19 15:46:20;;;;;;;;;;;;;;;;;;5137624;28;19922;-54
2023/12/19 15:48:50;;;;;;;;;;;;;;;;;;5125456;28;19915;-54
2023/12/19 15:51:16;;;;;;;;;;;;;;;;;;5132782;28;19912;-56
2023/12/19 15:53:41;;;;;;;;;;;;;;;;;;5138794;27;19918;-57
2023/12/19 15:56:07;;;;;;;;;;;;;;;;;;5137899;28;19912;-56
2023/12/19 15:58:32;;;;;;;;;;;;;;;;;;5137938;28;19915;-53
2023/12/19 16:00:58;;;;;;;;;;;;;;;;;;5137890;28;19938;-55
2023/12/19 16:03:23;;;;;;;;;;;;;;;;;;5138263;28;19934;-54
2023/12/19 16:05:49;;;;;;;;;;;;;;;;;;5137066;28;19916;-54
2023/12/19 16:08:14;;;;;;;;;;;;;;;;;;5129842;28;19971;-56
2023/12/19 16:10:39;;;;;;;;;;;;;;;;;;5131291;28;19931;-56
2023/12/19 16:13:05;;;;;;;;;;;;;;;;;;5138070;28;19920;-54
2023/12/19 16:15:31;;;;;;;;;;;;;;;;;;5135656;28;20048;-53
2023/12/19 16:17:56;;;;;;;;;;;;;;;;;;5137480;28;19911;-51
2023/12/19 16:20:22;;;;;;;;;;;;;;;;;;5136478;28;19955;-54
2023/12/19 16:22:47;;;;;;;;;;;;;;;;;;5137766;28;19934;-53
2023/12/19 16:25:14;;;;;;;;;;;;;;;;;;5136624;28;19912;-56
2023/12/19 16:27:39;;;;;;;;;;;;;;;;;;5137458;28;19927;-54
2023/12/19 16:30:05;;;;;;;;;;;;;;;;;;5136017;28;19955;-53
2023/12/19 16:32:30;;;;;;;;;;;;;;;;;;5137271;28;19919;-54
2023/12/19 16:34:56;;;;;;;;;;;;;;;;;;5123091;27;19912;-58